This is the latest recevied weather packets stored in our database for station/object E22ZMG-2. If no packets are shown the sender has not sent any weather packets the latest 10 day(s).
| Time | Temp. | Humidity | Pressure | Rain* | Wind** | Luminosity | Snow |
|---|---|---|---|---|---|---|---|
| 1778320698 | 28.89° C | 67% | 925 hPa | - | - | 0 W/m² | - |
| 1778320074 | 28.89° C | 67% | 925 hPa | - | - | 0 W/m² | - |
| 1778319450 | 28.89° C | 66% | 925 hPa | - | - | 0 W/m² | - |
| 1778318825 | 28.89° C | 67% | 925 hPa | - | - | 0 W/m² | - |
| 1778318201 | 28.33° C | 68% | 925 hPa | - | - | 0 W/m² | - |
| 1778317577 | 28.33° C | 69% | 926 hPa | - | - | 0 W/m² | - |
| 1778316953 | 27.78° C | 71% | 926 hPa | - | - | 0 W/m² | - |
| 1778316329 | 28.33° C | 70% | 926 hPa | - | - | 0 W/m² | - |
| 1778315705 | 28.33° C | 70% | 926 hPa | - | - | 0 W/m² | - |
| 1778315081 | 29.44° C | 66% | 926 hPa | - | - | 0 W/m² | - |
| 1778314456 | 28.89° C | 68% | 926 hPa | - | - | 0 W/m² | - |
| 1778313832 | 29.44° C | 67% | 926 hPa | - | - | 0 W/m² | - |
| 1778313209 | 30° C | 64% | 926 hPa | - | - | 0 W/m² | - |
| 1778312584 | 30° C | 57% | 926 hPa | - | - | 0 W/m² | - |
| 1778311960 | 30° C | 58% | 926 hPa | - | - | 0 W/m² | - |
| 1778311336 | 30° C | 60% | 926 hPa | - | - | 0 W/m² | - |
| 1778310712 | 30° C | 60% | 926 hPa | - | - | 0 W/m² | - |
| 1778310088 | 30° C | 61% | 927 hPa | - | - | 0 W/m² | - |
| 1778309463 | 29.44° C | 64% | 927 hPa | - | - | 0 W/m² | - |
| 1778308839 | 29.44° C | 64% | 927 hPa | - | - | 0 W/m² | - |
| 1778308215 | 29.44° C | 65% | 927 hPa | - | - | 0 W/m² | - |
| 1778307574 | 28.89° C | 65% | 927 hPa | - | - | 0 W/m² | - |
| 1778306951 | 28.89° C | 67% | 928 hPa | - | - | 0 W/m² | - |
| 1778306326 | 28.89° C | 67% | 928 hPa | - | - | 0 W/m² | - |
| 1778305702 | 28.33° C | 70% | 928 hPa | - | - | 0 W/m² | - |
* Rain since midnight (hover to see other rain measurements)
** Current wind speed in m/s (hover to see current wind gust speed)